Time;durP1;ratioP1;P1;durP2;ratioP2;P2;SDS_P1;SDS_P2;PMS_P1;PMS_P2;Temp;Humidity;BMP_temperature;BMP_pressure;BME280_temperature;BME280_humidity;BME280_pressure;Samples;Min_cycle;Max_cycle;Signal;HPM_P1;HPM_P2
2023/06/02 00:00:39;;;;;;;16.63;2.58;;;10.70;99.90;;;;;;5047304;28;20325;-66
2023/06/02 00:03:10;;;;;;;16.17;2.05;;;10.70;99.90;;;;;;5028045;28;20289;-67
2023/06/02 00:05:38;;;;;;;24.52;2.20;;;10.70;99.90;;;;;;5014360;28;20068;-66
2023/06/02 00:08:04;;;;;;;20.42;2.80;;;10.70;99.90;;;;;;5012690;28;20423;-67
2023/06/02 00:10:30;;;;;;;21.25;2.30;;;10.70;99.90;;;;;;5048387;28;20483;-66
2023/06/02 00:12:56;;;;;;;15.25;1.77;;;10.60;99.90;;;;;;5031438;28;20108;-66
2023/06/02 00:15:21;;;;;;;18.33;2.63;;;10.70;99.90;;;;;;5015543;28;20121;-66
2023/06/02 00:17:47;;;;;;;21.60;2.53;;;10.70;99.90;;;;;;5014842;28;20037;-67
2023/06/02 00:20:13;;;;;;;22.10;2.00;;;10.60;99.90;;;;;;5030305;28;20029;-67
2023/06/02 00:22:39;;;;;;;15.90;2.42;;;10.60;99.90;;;;;;5049476;28;20084;-67
2023/06/02 00:25:05;;;;;;;19.58;2.47;;;10.60;99.90;;;;;;4995964;28;20044;-66
2023/06/02 00:27:31;;;;;;;16.85;2.17;;;10.60;99.90;;;;;;5013089;28;20037;-67
2023/06/02 00:29:57;;;;;;;17.88;2.08;;;10.60;99.90;;;;;;5014203;28;20507;-67
2023/06/02 00:32:23;;;;;;;26.25;3.67;;;10.60;99.90;;;;;;5016411;28;20454;-67
2023/06/02 00:34:49;;;;;;;22.48;2.25;;;10.60;99.90;;;;;;5012666;28;20102;-67
2023/06/02 00:37:14;;;;;;;24.17;3.33;;;10.60;99.90;;;;;;5013321;28;21310;-67
2023/06/02 00:39:40;;;;;;;23.75;2.22;;;10.60;99.90;;;;;;5015004;28;20037;-66
2023/06/02 00:42:06;;;;;;;20.13;2.30;;;10.60;99.90;;;;;;5013530;28;20333;-66
2023/06/02 00:44:32;;;;;;;21.27;2.20;;;10.70;99.90;;;;;;5012813;28;20037;-67
2023/06/02 00:46:58;;;;;;;18.45;1.80;;;10.70;99.90;;;;;;5035160;28;20177;-66
2023/06/02 00:49:24;;;;;;;23.00;3.22;;;10.70;99.90;;;;;;5000354;28;20229;-66
2023/06/02 00:51:50;;;;;;;19.95;3.03;;;10.70;99.90;;;;;;5017165;28;20273;-66
2023/06/02 00:54:16;;;;;;;24.33;2.92;;;10.60;99.90;;;;;;4999978;28;20045;-67
2023/06/02 00:56:43;;;;;;;21.45;2.20;;;10.70;99.90;;;;;;5015148;28;20045;-67
2023/06/02 00:59:10;;;;;;;22.38;2.63;;;10.60;99.90;;;;;;5017354;28;20045;-66
2023/06/02 01:01:38;;;;;;;18.05;2.25;;;10.70;99.90;;;;;;5017602;28;20180;-66
2023/06/02 01:04:07;;;;;;;20.83;2.30;;;10.70;99.90;;;;;;5017806;28;20048;-66
2023/06/02 01:06:36;;;;;;;22.88;2.50;;;10.70;99.90;;;;;;5017173;28;20079;-66
2023/06/02 01:09:04;;;;;;;23.25;2.33;;;10.70;99.90;;;;;;5051196;28;20131;-66
2023/06/02 01:11:29;;;;;;;27.15;2.97;;;10.70;99.90;;;;;;5035283;28;20042;-66
2023/06/02 01:13:55;;;;;;;22.30;2.60;;;10.80;99.90;;;;;;5015941;28;20107;-66
2023/06/02 01:16:22;;;;;;;18.70;2.25;;;10.70;99.90;;;;;;5033477;28;20041;-66
2023/06/02 01:18:51;;;;;;;21.70;2.22;;;10.80;99.90;;;;;;5017766;28;20044;-66
2023/06/02 01:21:26;;;;;;;26.23;2.10;;;10.80;99.90;;;;;;5049804;28;20060;-67
2023/06/02 01:23:53;;;;;;;20.33;2.33;;;10.80;99.90;;;;;;5034433;28;20202;-66
2023/06/02 01:26:19;;;;;;;18.80;2.55;;;10.70;99.90;;;;;;5017172;28;20206;-67
2023/06/02 01:28:45;;;;;;;18.50;2.20;;;10.80;99.90;;;;;;5014578;28;20527;-66
2023/06/02 01:31:34;;;;;;;22.02;3.53;;;10.70;99.90;;;;;;4999855;28;20574;-66
2023/06/02 01:34:15;;;;;;;16.52;2.10;;;10.70;99.90;;;;;;5048218;28;20084;-66
2023/06/02 01:36:42;;;;;;;18.55;2.28;;;10.70;99.90;;;;;;5016217;28;20585;-66
2023/06/02 01:39:09;;;;;;;17.05;2.33;;;10.80;99.90;;;;;;5014421;28;20053;-66
2023/06/02 01:41:41;;;;;;;15.30;2.00;;;10.80;99.90;;;;;;5016480;28;20060;-67
2023/06/02 01:44:07;;;;;;;23.88;2.83;;;10.80;99.90;;;;;;5016584;28;20101;-66
2023/06/02 01:46:33;;;;;;;22.00;3.03;;;10.80;99.90;;;;;;5015934;28;20560;-67
2023/06/02 01:48:59;;;;;;;26.90;2.53;;;10.80;99.90;;;;;;5051210;28;20041;-67
2023/06/02 01:51:24;;;;;;;18.38;2.50;;;10.80;99.90;;;;;;5016521;28;20463;-66
2023/06/02 01:53:50;;;;;;;19.92;2.15;;;10.80;99.90;;;;;;5014513;28;20345;-66
2023/06/02 01:56:16;;;;;;;25.92;2.83;;;10.80;99.90;;;;;;5014612;28;20511;-66
2023/06/02 01:58:42;;;;;;;19.15;2.60;;;10.90;99.90;;;;;;5015875;28;20048;-67
2023/06/02 02:01:08;;;;;;;20.25;2.25;;;10.90;99.90;;;;;;4999456;28;20045;-66
2023/06/02 02:03:33;;;;;;;23.50;3.17;;;10.80;99.90;;;;;;5016296;28;20504;-66
2023/06/02 02:05:59;;;;;;;20.65;2.42;;;10.80;99.90;;;;;;5013721;28;20107;-67
2023/06/02 02:08:25;;;;;;;23.85;2.45;;;10.80;99.90;;;;;;5016358;28;20391;-67
2023/06/02 02:10:51;;;;;;;22.85;2.97;;;10.80;99.90;;;;;;5014678;28;20053;-66
2023/06/02 02:13:17;;;;;;;20.88;3.13;;;10.80;99.90;;;;;;4998818;28;20124;-66
2023/06/02 02:15:43;;;;;;;21.60;3.05;;;10.80;99.90;;;;;;5017897;28;20060;-66
2023/06/02 02:18:09;;;;;;;24.40;2.78;;;10.80;99.90;;;;;;5016079;28;20206;-67
2023/06/02 02:20:42;;;;;;;23.98;3.10;;;10.90;1.00;;;;;;5015705;28;20034;-66
2023/06/02 02:23:07;;;;;;;22.87;3.47;;;10.90;1.00;;;;;;5047774;28;20044;-66
2023/06/02 02:25:33;;;;;;;24.20;2.85;;;10.90;1.00;;;;;;5017694;28;20426;-66
2023/06/02 02:27:59;;;;;;;19.50;3.10;;;10.90;1.00;;;;;;5014050;28;20184;-66
2023/06/02 02:30:26;;;;;;;23.77;3.13;;;10.90;1.00;;;;;;5015202;28;20324;-66
2023/06/02 02:32:52;;;;;;;24.63;2.58;;;11.00;1.00;;;;;;5046270;28;20077;-67
2023/06/02 02:35:17;;;;;;;19.50;2.58;;;11.00;1.00;;;;;;5048234;28;20603;-66
2023/06/02 02:37:44;;;;;;;24.90;2.92;;;11.00;1.00;;;;;;5015282;28;20060;-66
2023/06/02 02:40:10;;;;;;;21.83;3.42;;;11.00;1.00;;;;;;5014901;28;20042;-67
2023/06/02 02:42:36;;;;;;;26.63;3.58;;;11.00;1.00;;;;;;5047952;28;20419;-66
2023/06/02 02:45:02;;;;;;;25.85;3.08;;;10.90;1.00;;;;;;5014511;28;20041;-68
2023/06/02 02:47:28;;;;;;;23.58;3.65;;;10.90;1.00;;;;;;5034331;28;20041;-67
2023/06/02 02:49:54;;;;;;;20.15;3.10;;;11.00;1.00;;;;;;5013986;28;20566;-67
2023/06/02 02:52:20;;;;;;;20.13;2.78;;;11.00;1.00;;;;;;5015376;28;20080;-66
2023/06/02 02:54:46;;;;;;;21.23;2.92;;;11.00;1.00;;;;;;5013389;28;20084;-66
2023/06/02 02:57:12;;;;;;;21.58;2.65;;;11.00;1.00;;;;;;5011300;28;20105;-67
2023/06/02 02:59:37;;;;;;;25.58;3.13;;;11.00;1.00;;;;;;5013402;28;20270;-66
2023/06/02 03:02:06;;;;;;;28.65;3.70;;;11.00;1.00;;;;;;5014399;28;20073;-66
2023/06/02 03:04:32;;;;;;;27.35;3.53;;;11.10;1.00;;;;;;5016492;28;20603;-67
2023/06/02 03:06:58;;;;;;;33.03;4.53;;;11.10;1.00;;;;;;5014378;28;20496;-66
2023/06/02 03:09:24;;;;;;;26.63;3.50;;;11.10;1.00;;;;;;5012846;28;20418;-67
2023/06/02 03:11:50;;;;;;;26.13;3.20;;;11.10;1.00;;;;;;5049418;28;20140;-67
2023/06/02 03:14:16;;;;;;;26.48;3.20;;;11.10;1.00;;;;;;5016135;28;20458;-67
2023/06/02 03:16:44;;;;;;;26.23;3.25;;;11.10;1.00;;;;;;5014876;28;20033;-67
2023/06/02 03:19:14;;;;;;;25.35;3.65;;;11.20;1.00;;;;;;5013292;28;20041;-67
2023/06/02 03:21:44;;;;;;;20.02;3.17;;;11.20;1.00;;;;;;5016378;28;20048;-67
2023/06/02 03:24:11;;;;;;;28.45;3.40;;;11.20;1.00;;;;;;5011918;28;20121;-67
2023/06/02 03:26:41;;;;;;;28.67;3.53;;;11.20;1.00;;;;;;5013811;28;20033;-67
2023/06/02 03:29:08;;;;;;;26.00;3.47;;;11.20;1.00;;;;;;5014063;28;20139;-66
2023/06/02 03:31:33;;;;;;;26.15;4.00;;;11.20;1.00;;;;;;5015047;28;20049;-67
2023/06/02 03:33:59;;;;;;;26.90;3.58;;;11.20;1.00;;;;;;4998748;28;20965;-66
2023/06/02 03:36:25;;;;;;;24.35;3.88;;;11.30;1.00;;;;;;5013365;28;20037;-66
2023/06/02 03:38:51;;;;;;;26.73;4.30;;;11.30;1.00;;;;;;4997140;28;20140;-67
2023/06/02 03:41:17;;;;;;;25.95;4.30;;;11.30;5.80;;;;;;4997214;28;20059;-66
2023/06/02 03:43:43;;;;;;;29.80;4.50;;;11.30;1.00;;;;;;5015611;28;20553;-67
2023/06/02 03:46:08;;;;;;;25.50;3.38;;;11.30;6.30;;;;;;5013012;28;20041;-67
2023/06/02 03:48:34;;;;;;;23.42;3.58;;;11.30;1.00;;;;;;4996340;28;20064;-67
2023/06/02 03:51:00;;;;;;;25.20;3.83;;;11.40;16.30;;;;;;5031214;28;20038;-67
2023/06/02 03:53:26;;;;;;;29.38;4.00;;;11.40;24.20;;;;;;5014083;28;20044;-67
2023/06/02 03:55:51;;;;;;;31.55;4.55;;;11.40;60.90;;;;;;5045130;28;20453;-66
2023/06/02 03:58:19;;;;;;;29.48;4.60;;;11.40;56.80;;;;;;5018544;28;20111;-66
2023/06/02 04:00:46;;;;;;;26.80;4.57;;;11.40;34.90;;;;;;5013881;28;20095;-67
2023/06/02 04:03:12;;;;;;;26.10;4.45;;;11.50;72.90;;;;;;5015953;28;20451;-66
2023/06/02 04:05:38;;;;;;;28.73;4.03;;;11.50;68.30;;;;;;5015433;28;20041;-67
2023/06/02 04:08:03;;;;;;;27.80;3.92;;;11.50;89.40;;;;;;5033468;28;20041;-67
2023/06/02 04:10:30;;;;;;;31.58;4.63;;;11.50;79.80;;;;;;5013197;28;20056;-67
2023/06/02 04:12:59;;;;;;;31.70;4.82;;;11.60;83.60;;;;;;4997490;28;20048;-66
2023/06/02 04:15:24;;;;;;;32.58;4.72;;;11.60;99.90;;;;;;5015955;28;20109;-67
2023/06/02 04:17:51;;;;;;;27.20;4.18;;;11.60;94.30;;;;;;5014714;28;20553;-66
2023/06/02 04:20:16;;;;;;;30.08;4.68;;;11.60;99.90;;;;;;5016296;28;20068;-66
2023/06/02 04:22:42;;;;;;;35.70;4.57;;;11.70;99.90;;;;;;5015865;28;20119;-67
2023/06/02 04:25:08;;;;;;;29.65;5.22;;;11.70;99.90;;;;;;5016083;28;20048;-66
2023/06/02 04:27:33;;;;;;;35.40;4.68;;;11.80;99.90;;;;;;5017064;28;20371;-67
2023/06/02 04:30:01;;;;;;;31.63;4.40;;;11.80;99.90;;;;;;5018244;28;20053;-67
2023/06/02 04:32:26;;;;;;;34.03;5.07;;;11.80;99.90;;;;;;5016318;28;20560;-68
2023/06/02 04:34:52;;;;;;;33.05;4.20;;;11.80;99.90;;;;;;5016997;28;20052;-67
2023/06/02 04:37:19;;;;;;;27.25;4.43;;;11.90;99.90;;;;;;5017214;28;20192;-66
2023/06/02 04:39:47;;;;;;;32.67;4.03;;;11.90;99.90;;;;;;5018548;28;20179;-67
2023/06/02 04:42:19;;;;;;;27.25;4.57;;;12.00;99.90;;;;;;5018009;28;20037;-67
2023/06/02 04:44:44;;;;;;;30.92;4.40;;;12.00;99.90;;;;;;5036337;28;20137;-67
2023/06/02 04:47:11;;;;;;;26.00;4.07;;;12.00;99.90;;;;;;5018221;28;20216;-66
2023/06/02 04:49:37;;;;;;;36.08;5.78;;;12.00;99.90;;;;;;5032347;28;20049;-66
2023/06/02 04:52:07;;;;;;;31.77;4.65;;;12.10;99.90;;;;;;5052297;28;20132;-66
2023/06/02 04:54:33;;;;;;;39.50;4.95;;;12.10;99.90;;;;;;5016137;28;20045;-67
2023/06/02 04:56:58;;;;;;;39.80;5.18;;;12.20;99.90;;;;;;5050390;28;20693;-67
2023/06/02 04:59:24;;;;;;;32.60;4.80;;;12.20;99.90;;;;;;5019171;28;20057;-65
2023/06/02 05:01:50;;;;;;;31.48;4.63;;;12.30;99.90;;;;;;5015816;28;20051;-65
2023/06/02 05:04:16;;;;;;;29.10;4.35;;;12.30;99.90;;;;;;5016368;28;20040;-66
2023/06/02 05:06:41;;;;;;;36.25;4.85;;;12.40;99.90;;;;;;5020435;28;20246;-65
2023/06/02 05:09:07;;;;;;;29.20;4.28;;;12.40;99.90;;;;;;5016490;28;20652;-65
2023/06/02 05:11:33;;;;;;;28.27;4.63;;;12.50;99.90;;;;;;5020094;28;20136;-65
2023/06/02 05:13:58;;;;;;;27.52;4.80;;;12.50;99.90;;;;;;5017338;28;20117;-65
2023/06/02 05:16:24;;;;;;;30.88;4.90;;;12.60;99.90;;;;;;5017239;28;21476;-66
2023/06/02 05:18:50;;;;;;;33.42;4.60;;;12.70;99.90;;;;;;5016734;28;20041;-65
2023/06/02 05:21:16;;;;;;;33.05;4.65;;;12.70;99.90;;;;;;5030020;28;20041;-65
2023/06/02 05:23:41;;;;;;;25.00;4.20;;;12.80;99.90;;;;;;5017071;28;20049;-65
2023/06/02 05:26:07;;;;;;;27.50;3.97;;;12.90;99.90;;;;;;5000805;28;20045;-65
2023/06/02 05:28:33;;;;;;;27.60;3.90;;;13.00;99.90;;;;;;5017585;28;20783;-65
2023/06/02 05:30:58;;;;;;;26.58;3.72;;;13.10;98.10;;;;;;5016967;28;20046;-65
2023/06/02 05:33:24;;;;;;;28.40;4.05;;;13.20;92.50;;;;;;5017382;28;20033;-65
2023/06/02 05:35:50;;;;;;;32.85;4.18;;;13.30;82.40;;;;;;5021237;28;20089;-65
2023/06/02 05:38:17;;;;;;;32.85;4.40;;;13.40;85.60;;;;;;5048225;28;20553;-66
2023/06/02 05:40:44;;;;;;;29.08;3.47;;;13.60;90.40;;;;;;5014618;28;20041;-66
2023/06/02 05:43:09;;;;;;;28.08;3.88;;;13.70;76.30;;;;;;5013702;28;20048;-66
2023/06/02 05:45:35;;;;;;;27.73;4.75;;;13.80;52.80;;;;;;5009988;28;20063;-65
2023/06/02 05:48:01;;;;;;;30.83;3.92;;;14.10;52.50;;;;;;5012885;28;20038;-66
2023/06/02 05:50:26;;;;;;;31.23;4.30;;;14.50;27.90;;;;;;5013508;28;20617;-66
2023/06/02 05:52:53;;;;;;;22.35;3.28;;;14.90;1.00;;;;;;4997574;28;20042;-65
2023/06/02 05:55:19;;;;;;;21.98;3.95;;;15.30;1.00;;;;;;5028349;28;20310;-66
2023/06/02 05:57:45;;;;;;;24.85;3.35;;;15.50;99.90;;;;;;4996301;28;20318;-66
2023/06/02 06:00:11;;;;;;;23.13;3.45;;;15.60;99.90;;;;;;5048944;28;20072;-66
2023/06/02 06:02:36;;;;;;;26.23;3.97;;;16.00;99.90;;;;;;5045622;28;20170;-66
2023/06/02 06:05:02;;;;;;;26.55;3.70;;;16.00;99.90;;;;;;5012928;28;20041;-66
2023/06/02 06:07:28;;;;;;;26.70;3.53;;;15.80;99.90;;;;;;5013994;28;20753;-67
2023/06/02 06:09:54;;;;;;;29.10;3.55;;;15.60;99.90;;;;;;5012772;28;20073;-65
2023/06/02 06:12:19;;;;;;;24.35;3.33;;;15.50;99.90;;;;;;5029380;28;20541;-66
2023/06/02 06:14:45;;;;;;;18.30;3.22;;;15.60;99.90;;;;;;5013350;28;20444;-66
2023/06/02 06:17:11;;;;;;;20.40;2.90;;;15.40;99.90;;;;;;5013276;28;20412;-67
2023/06/02 06:19:36;;;;;;;19.85;3.70;;;15.30;99.90;;;;;;5012739;28;20132;-65
2023/06/02 06:22:02;;;;;;;19.25;2.55;;;15.30;99.90;;;;;;5045084;28;20207;-66
2023/06/02 06:24:28;;;;;;;21.55;2.88;;;15.50;99.90;;;;;;5012090;28;20685;-65
2023/06/02 06:26:54;;;;;;;18.48;2.50;;;15.60;99.90;;;;;;5031010;28;20337;-66
2023/06/02 06:29:19;;;;;;;18.48;2.30;;;15.80;99.90;;;;;;5013545;28;20037;-66
2023/06/02 06:31:45;;;;;;;16.63;2.40;;;15.90;99.90;;;;;;5011074;28;20067;-66
2023/06/02 06:34:11;;;;;;;15.93;2.83;;;16.10;99.90;;;;;;5010623;28;20033;-66
2023/06/02 06:36:36;;;;;;;18.70;2.05;;;16.10;99.90;;;;;;5015373;28;20079;-65
2023/06/02 06:39:03;;;;;;;17.55;2.55;;;16.30;99.90;;;;;;4994503;28;20046;-65
2023/06/02 06:41:28;;;;;;;13.35;2.13;;;16.30;99.90;;;;;;5027752;28;20115;-66
2023/06/02 06:43:54;;;;;;;12.82;2.00;;;16.40;99.90;;;;;;5015563;28;20045;-65
2023/06/02 06:46:20;;;;;;;16.90;2.22;;;16.60;99.90;;;;;;5011928;28;20195;-65
2023/06/02 06:48:46;;;;;;;18.02;2.65;;;16.70;99.90;;;;;;5014600;28;20077;-66
2023/06/02 06:51:11;;;;;;;16.73;1.98;;;16.80;99.90;;;;;;5018927;28;20029;-65
2023/06/02 06:53:37;;;;;;;14.18;2.10;;;16.90;99.90;;;;;;5018556;28;20040;-65
2023/06/02 06:56:03;;;;;;;12.40;2.13;;;16.90;99.90;;;;;;5020202;28;20106;-65
2023/06/02 06:58:29;;;;;;;13.25;1.90;;;17.10;99.90;;;;;;5032631;28;20049;-66
2023/06/02 07:00:57;;;;;;;14.02;1.80;;;17.10;99.90;;;;;;5032594;28;20701;-65
2023/06/02 07:03:22;;;;;;;14.85;1.70;;;17.10;99.90;;;;;;5034770;28;20067;-65
2023/06/02 07:05:48;;;;;;;12.82;1.75;;;17.30;99.90;;;;;;5033519;28;20116;-65
2023/06/02 07:08:14;;;;;;;14.90;1.67;;;17.30;99.90;;;;;;5024337;28;20045;-65
2023/06/02 07:10:40;;;;;;;14.15;1.52;;;17.40;99.90;;;;;;5021565;28;20742;-66
2023/06/02 07:13:06;;;;;;;11.55;1.50;;;17.50;99.90;;;;;;5047842;28;20638;-65
2023/06/02 07:15:32;;;;;;;9.18;1.00;;;17.60;99.90;;;;;;5023621;28;20033;-65
2023/06/02 07:17:58;;;;;;;5.15;0.88;;;17.50;93.90;;;;;;5038421;28;20041;-65
2023/06/02 07:20:24;;;;;;;6.30;0.68;;;17.50;99.90;;;;;;5016520;28;20249;-65
2023/06/02 07:22:50;;;;;;;7.70;0.65;;;17.50;95.00;;;;;;5034037;28;20306;-65
2023/06/02 07:25:16;;;;;;;5.78;0.80;;;17.70;60.20;;;;;;5015906;28;20045;-66
2023/06/02 07:27:41;;;;;;;7.00;0.55;;;17.70;55.90;;;;;;5018004;28;20044;-66
2023/06/02 07:30:07;;;;;;;7.20;0.75;;;17.60;1.00;;;;;;5017868;28;20455;-65
2023/06/02 07:32:33;;;;;;;6.07;0.50;;;17.80;1.00;;;;;;5050824;28;20044;-65
2023/06/02 07:34:59;;;;;;;3.55;0.50;;;17.70;1.00;;;;;;4999392;28;20530;-66
2023/06/02 07:37:25;;;;;;;6.97;0.40;;;17.60;1.00;;;;;;5018082;28;20051;-66
2023/06/02 07:39:50;;;;;;;7.60;0.55;;;17.60;1.00;;;;;;5021551;28;20597;-65
2023/06/02 07:42:19;;;;;;;5.35;0.40;;;17.50;1.00;;;;;;5021175;28;20219;-64
2023/06/02 07:44:44;;;;;;;6.80;0.65;;;17.60;1.00;;;;;;5052922;28;20068;-65
2023/06/02 07:47:10;;;;;;;4.13;0.80;;;17.70;2.40;;;;;;5020030;28;20701;-65
2023/06/02 07:49:36;;;;;;;7.72;0.70;;;17.80;1.00;;;;;;5017796;28;20084;-64
2023/06/02 07:52:03;;;;;;;8.30;0.63;;;17.90;1.00;;;;;;5023626;28;20543;-66
2023/06/02 07:54:29;;;;;;;6.97;0.70;;;17.90;1.00;;;;;;5025454;28;20047;-65
2023/06/02 07:56:55;;;;;;;4.70;0.50;;;17.90;1.00;;;;;;5024656;28;20041;-65
2023/06/02 07:59:23;;;;;;;6.32;0.60;;;18.00;1.00;;;;;;5028174;28;20329;-65
2023/06/02 08:01:49;;;;;;;5.32;0.93;;;17.90;1.00;;;;;;5025282;28;20517;-65
2023/06/02 08:04:15;;;;;;;7.55;0.70;;;18.10;99.90;;;;;;5027101;28;20203;-65
2023/06/02 08:06:40;;;;;;;5.63;0.52;;;18.00;1.00;;;;;;5026438;28;20566;-65
2023/06/02 08:09:06;;;;;;;6.65;0.43;;;18.00;99.90;;;;;;5022290;28;20071;-65
2023/06/02 08:11:32;;;;;;;5.80;0.40;;;18.10;99.90;;;;;;5039184;28;20044;-65
2023/06/02 08:13:58;;;;;;;6.20;0.70;;;18.10;99.90;;;;;;5038096;28;20415;-64
2023/06/02 08:16:24;;;;;;;7.45;0.68;;;18.10;99.90;;;;;;5059601;28;20037;-67
2023/06/02 08:18:50;;;;;;;4.43;0.60;;;18.30;99.90;;;;;;5023930;28;20049;-66
2023/06/02 08:21:16;;;;;;;5.65;0.60;;;18.40;99.90;;;;;;5037454;28;20111;-66
2023/06/02 08:23:42;;;;;;;7.18;0.68;;;18.30;99.90;;;;;;5055657;28;20045;-66
2023/06/02 08:26:08;;;;;;;5.18;0.47;;;18.30;99.90;;;;;;5054581;28;20041;-66
2023/06/02 08:28:34;;;;;;;9.38;0.82;;;18.20;99.90;;;;;;5054664;28;20056;-66
2023/06/02 08:31:00;;;;;;;4.22;0.70;;;18.30;99.90;;;;;;5019468;28;20045;-66
2023/06/02 08:33:27;;;;;;;11.70;0.80;;;18.50;99.90;;;;;;5021836;28;20505;-66
2023/06/02 08:35:54;;;;;;;8.10;0.60;;;18.60;99.90;;;;;;5021177;28;20373;-66
2023/06/02 08:38:20;;;;;;;9.73;1.17;;;18.60;99.90;;;;;;5021313;28;20037;-66
2023/06/02 08:40:49;;;;;;;6.30;0.77;;;18.70;99.90;;;;;;5035793;28;20044;-65
2023/06/02 08:43:15;;;;;;;7.70;0.80;;;18.70;99.90;;;;;;5026135;28;20085;-66
2023/06/02 08:45:46;;;;;;;4.65;0.52;;;18.60;99.90;;;;;;5020167;28;20944;-66
2023/06/02 08:48:17;;;;;;;4.25;0.68;;;18.80;99.90;;;;;;5003799;28;20045;-65
2023/06/02 08:50:46;;;;;;;7.50;0.75;;;18.70;99.90;;;;;;5038569;28;20041;-65
2023/06/02 08:53:15;;;;;;;6.40;0.68;;;18.80;99.90;;;;;;5029647;28;20041;-65
2023/06/02 08:55:41;;;;;;;4.88;0.50;;;18.80;99.90;;;;;;5021190;28;20045;-65
2023/06/02 08:58:11;;;;;;;7.35;0.80;;;19.10;99.90;;;;;;5023453;28;20483;-66
2023/06/02 09:00:41;;;;;;;6.63;0.88;;;19.30;99.90;;;;;;5024745;28;20078;-65
2023/06/02 09:03:07;;;;;;;5.65;0.80;;;19.40;99.90;;;;;;5005638;28;20033;-66
2023/06/02 09:05:33;;;;;;;8.88;1.23;;;19.40;99.90;;;;;;5049681;28;20185;-66
2023/06/02 09:08:12;;;;;;;6.18;0.60;;;19.40;99.90;;;;;;5048017;28;20045;-67
2023/06/02 09:10:42;;;;;;;7.82;0.73;;;19.40;99.90;;;;;;5049017;28;20699;-66
2023/06/02 09:13:27;;;;;;;4.60;0.57;;;19.40;99.90;;;;;;5004035;28;20032;-66
2023/06/02 09:16:00;;;;;;;6.55;0.80;;;19.50;99.90;;;;;;5020620;28;20045;-66
2023/06/02 09:18:27;;;;;;;6.22;0.60;;;19.50;99.90;;;;;;5032509;28;20107;-66
2023/06/02 09:20:54;;;;;;;4.95;0.40;;;19.70;99.90;;;;;;5046967;28;20041;-66
2023/06/02 09:23:20;;;;;;;7.70;0.75;;;19.70;99.90;;;;;;5017305;28;20067;-67
2023/06/02 09:25:46;;;;;;;7.53;0.80;;;19.80;99.90;;;;;;5018672;28;20581;-66
2023/06/02 09:28:12;;;;;;;6.35;1.05;;;20.00;99.90;;;;;;5021162;28;20050;-66
2023/06/02 09:30:38;;;;;;;5.78;0.88;;;20.10;99.90;;;;;;5016728;28;20526;-65
2023/06/02 09:33:11;;;;;;;6.43;0.80;;;20.20;99.90;;;;;;5049531;28;20801;-65
2023/06/02 09:35:36;;;;;;;;;;;20.10;99.90;;;;;;5015890;28;20041;-65
2023/06/02 09:38:07;;;;;;;9.45;0.98;;;19.90;99.90;;;;;;5033692;28;19921;-65
2023/06/02 09:40:37;;;;;;;4.68;0.60;;;20.10;99.90;;;;;;5033580;28;20061;-66
2023/06/02 09:43:04;;;;;;;4.72;0.80;;;20.30;99.90;;;;;;5050069;28;20081;-65
2023/06/02 09:45:51;;;;;;;5.53;0.73;;;20.50;99.90;;;;;;5019693;28;20300;-67
2023/06/02 09:48:22;;;;;;;9.35;0.77;;;20.80;99.90;;;;;;5017658;28;20485;-67
2023/06/02 09:50:49;;;;;;;6.15;0.65;;;21.00;99.90;;;;;;5036833;28;20045;-66
2023/06/02 09:53:17;;;;;;;5.90;0.60;;;20.80;99.90;;;;;;5001993;28;20593;-67
2023/06/02 09:55:44;;;;;;;5.15;0.70;;;20.60;99.90;;;;;;5001442;28;20115;-66
2023/06/02 09:58:10;;;;;;;6.25;0.82;;;20.60;99.90;;;;;;5018145;28;20737;-67
2023/06/02 10:00:36;;;;;;;7.10;0.80;;;20.60;99.90;;;;;;5018782;28;20056;-66
2023/06/02 10:03:02;;;;;;;6.35;0.80;;;20.70;99.90;;;;;;5015251;28;20121;-67
2023/06/02 10:05:28;;;;;;;4.90;0.60;;;20.60;99.90;;;;;;5058868;28;20033;-67
2023/06/02 10:08:19;;;;;;;5.55;0.80;;;20.60;99.90;;;;;;5019797;28;20110;-68
2023/06/02 10:11:25;;;;;;;5.28;0.75;;;20.60;99.90;;;;;;5016125;28;20063;-66
2023/06/02 10:14:09;;;;;;;6.60;0.82;;;20.40;99.90;;;;;;4999426;28;20104;-67
2023/06/02 10:17:13;;;;;;;4.78;0.85;;;20.60;99.90;;;;;;5010709;28;20029;-67
2023/06/02 10:20:04;;;;;;;9.57;1.13;;;20.60;99.90;;;;;;5011125;28;20038;-66
2023/06/02 10:22:38;;;;;;;6.15;1.05;;;20.80;99.90;;;;;;5012584;28;20049;-66
2023/06/02 10:25:25;;;;;;;9.07;1.20;;;21.00;99.90;;;;;;5027248;28;20041;-66
2023/06/02 10:27:51;;;;;;;7.43;0.93;;;21.20;99.90;;;;;;5016517;28;20514;-66
2023/06/02 10:30:23;;;;;;;9.40;1.42;;;21.30;94.70;;;;;;5015469;28;20523;-66
2023/06/02 10:32:50;;;;;;;6.53;1.17;;;21.10;99.90;;;;;;5013282;28;20041;-66
2023/06/02 10:35:17;;;;;;;8.05;1.15;;;21.00;99.90;;;;;;5034432;28;20410;-66
2023/06/02 10:37:44;;;;;;;5.90;1.23;;;21.20;99.90;;;;;;5018686;28;20034;-66
2023/06/02 10:40:10;;;;;;;7.55;1.23;;;21.10;99.90;;;;;;5017611;28;20505;-65
2023/06/02 10:42:37;;;;;;;8.88;1.42;;;21.30;99.90;;;;;;5016271;28;20458;-66
2023/06/02 10:45:22;;;;;;;10.65;1.73;;;21.50;99.90;;;;;;5011347;28;20041;-67
2023/06/02 10:47:48;;;;;;;6.85;1.63;;;21.00;99.90;;;;;;5029099;28;20080;-67
2023/06/02 10:50:17;;;;;;;9.48;1.60;;;20.80;99.90;;;;;;5025322;28;20069;-67
2023/06/02 10:52:59;;;;;;;7.07;1.67;;;20.60;99.90;;;;;;5013248;28;20038;-68
2023/06/02 10:55:30;;;;;;;8.20;1.23;;;20.90;99.90;;;;;;5028049;28;20159;-66
2023/06/02 10:58:03;;;;;;;7.05;1.23;;;21.00;99.90;;;;;;5019559;28;20549;-67
2023/06/02 11:00:32;;;;;;;;;;;20.90;99.90;;;;;;5049822;28;20041;-66
2023/06/02 11:02:58;;;;;;;10.65;1.88;;;21.20;99.90;;;;;;5049022;28;19920;-67
2023/06/02 11:05:25;;;;;;;11.60;1.65;;;21.40;99.90;;;;;;5014242;28;20048;-66
2023/06/02 11:10:49;;;;;;;9.18;1.20;;;21.80;99.90;;;;;;5063455;28;20202;-67
2023/06/02 11:13:18;;;;;;;8.50;1.50;;;21.40;99.90;;;;;;5029615;28;20041;-67
2023/06/02 11:15:53;;;;;;;6.50;1.23;;;20.90;99.90;;;;;;5030307;28;20044;-66
2023/06/02 11:18:22;;;;;;;8.15;1.88;;;20.70;99.90;;;;;;5030611;28;20263;-66
2023/06/02 11:20:50;;;;;;;7.35;1.55;;;20.50;99.90;;;;;;5030235;28;20071;-65
2023/06/02 11:23:17;;;;;;;11.18;2.08;;;20.80;99.90;;;;;;5029911;28;20138;-66
2023/06/02 11:25:47;;;;;;;6.35;1.25;;;20.70;99.90;;;;;;5029680;28;20044;-66
2023/06/02 11:28:20;;;;;;;9.20;1.63;;;20.70;99.90;;;;;;5029415;28;20048;-67
2023/06/02 11:30:46;;;;;;;;;;;20.70;99.90;;;;;;5047109;28;20048;-67
2023/06/02 11:33:12;;;;;;;8.73;1.77;;;20.40;99.90;;;;;;5063563;28;19927;-66
2023/06/02 11:35:40;;;;;;;9.50;1.85;;;20.20;99.90;;;;;;5046880;28;20337;-66
2023/06/02 11:38:08;;;;;;;7.97;1.55;;;19.60;99.90;;;;;;5030344;28;20071;-65
2023/06/02 11:40:36;;;;;;;8.48;2.13;;;19.90;99.90;;;;;;5030194;28;20508;-66
2023/06/02 11:43:03;;;;;;;9.93;1.95;;;19.60;99.90;;;;;;5030566;28;20044;-67
2023/06/02 11:45:29;;;;;;;10.88;2.10;;;19.40;99.90;;;;;;5047235;28;20049;-66
2023/06/02 11:48:10;;;;;;;9.52;2.20;;;19.50;99.90;;;;;;5029530;28;20056;-66
2023/06/02 11:50:37;;;;;;;11.88;2.65;;;19.60;99.90;;;;;;5029601;28;20041;-66
2023/06/02 11:53:03;;;;;;;10.30;1.95;;;19.80;99.90;;;;;;4997055;28;20650;-66
2023/06/02 11:55:32;;;;;;;6.68;2.40;;;19.70;99.90;;;;;;5031244;28;20045;-66
2023/06/02 11:58:22;;;;;;;8.70;1.90;;;20.00;99.90;;;;;;5013218;28;20092;-66
2023/06/02 12:00:51;;;;;;;8.52;2.05;;;20.60;99.90;;;;;;5013595;28;20045;-66
2023/06/02 12:03:17;;;;;;;13.23;2.10;;;21.00;99.90;;;;;;5029976;28;20586;-66
2023/06/02 12:05:45;;;;;;;11.18;2.00;;;21.00;99.90;;;;;;5046844;28;20045;-65
2023/06/02 12:08:24;;;;;;;8.02;1.85;;;20.50;99.90;;;;;;5030095;28;20049;-66
2023/06/02 12:10:50;;;;;;;11.30;1.65;;;20.70;99.90;;;;;;5029796;28;20056;-66
2023/06/02 12:13:30;;;;;;;7.88;1.92;;;20.50;99.90;;;;;;5029676;28;20181;-65
2023/06/02 12:16:17;;;;;;;8.15;2.15;;;20.90;99.90;;;;;;5030540;28;20434;-66
2023/06/02 12:18:43;;;;;;;8.85;2.03;;;20.80;99.90;;;;;;5030969;28;20350;-66
2023/06/02 12:21:21;;;;;;;8.65;2.50;;;21.10;99.90;;;;;;5029894;28;20549;-65
2023/06/02 12:23:46;;;;;;;9.82;2.33;;;20.10;99.90;;;;;;5047034;28;20243;-66
2023/06/02 12:26:13;;;;;;;9.30;2.50;;;19.80;99.90;;;;;;5046405;28;20342;-66
2023/06/02 12:28:39;;;;;;;6.78;2.63;;;19.30;99.90;;;;;;5013237;28;20656;-65
2023/06/02 12:31:05;;;;;;;7.55;2.75;;;18.90;99.90;;;;;;5031351;28;20127;-66
2023/06/02 12:33:31;;;;;;;9.88;2.63;;;18.80;1.00;;;;;;5030557;28;20048;-66
2023/06/02 12:35:57;;;;;;;10.15;2.85;;;19.00;1.00;;;;;;5046469;28;20311;-66
2023/06/02 12:38:23;;;;;;;8.75;2.85;;;19.00;1.00;;;;;;5046739;28;20048;-66
2023/06/02 12:40:50;;;;;;;11.10;2.85;;;19.10;1.00;;;;;;5013282;28;20132;-65
2023/06/02 12:43:18;;;;;;;7.07;2.72;;;19.00;1.00;;;;;;5016710;28;20041;-66
2023/06/02 12:45:44;;;;;;;9.48;2.90;;;19.40;1.00;;;;;;5033412;28;20386;-66
2023/06/02 12:48:11;;;;;;;9.32;2.63;;;19.60;99.90;;;;;;5033686;28;20557;-67